createdAt,value
2022-12-13T00:00:53.107Z,74.40
2022-12-13T00:01:53.131Z,70.20
2022-12-13T00:02:53.296Z,62.60
2022-12-13T00:03:53.087Z,70.00
2022-12-13T00:04:53.051Z,73.90
2022-12-13T00:05:53.034Z,70.80
2022-12-13T00:06:53.008Z,75.10
2022-12-13T00:07:53.026Z,74.60
2022-12-13T00:08:52.989Z,75.00
2022-12-13T00:09:52.975Z,71.00
2022-12-13T00:10:53.207Z,74.60
2022-12-13T00:11:52.949Z,64.40
2022-12-13T00:12:52.927Z,70.30
2022-12-13T00:13:52.918Z,66.30
2022-12-13T00:14:52.918Z,71.80
2022-12-13T00:15:52.908Z,75.70
2022-12-13T00:16:52.950Z,74.70
2022-12-13T00:17:52.868Z,65.60
2022-12-13T00:18:52.859Z,63.40
2022-12-13T00:19:52.878Z,70.80
2022-12-13T00:20:52.839Z,63.70
2022-12-13T00:21:52.826Z,68.30
2022-12-13T00:22:52.806Z,65.50
2022-12-13T00:23:52.799Z,69.50
2022-12-13T00:24:52.780Z,62.80
2022-12-13T00:25:52.778Z,62.30
2022-12-13T00:26:52.758Z,46.90
2022-12-13T00:27:52.749Z,60.30
2022-12-13T00:28:52.738Z,52.90
2022-12-13T00:29:52.721Z,54.00
2022-12-13T00:30:53.705Z,54.60
2022-12-13T00:32:00.056Z,56.40
2022-12-13T00:32:53.705Z,48.30
2022-12-13T00:33:52.713Z,57.00
2022-12-13T00:34:52.668Z,55.80
2022-12-13T00:35:52.676Z,60.10
2022-12-13T00:36:52.630Z,52.70
2022-12-13T00:37:52.629Z,50.10
2022-12-13T00:38:52.615Z,52.60
2022-12-13T00:39:52.630Z,50.40
2022-12-13T00:40:52.591Z,49.70
2022-12-13T00:41:52.589Z,56.60
2022-12-13T00:42:52.550Z,44.40
2022-12-13T00:43:52.550Z,44.20
2022-12-13T00:44:52.530Z,48.90
2022-12-13T00:45:52.558Z,46.80
2022-12-13T00:46:52.520Z,59.50
2022-12-13T00:47:52.504Z,57.40
2022-12-13T00:48:52.501Z,61.00
2022-12-13T00:49:52.472Z,62.20
2022-12-13T00:50:52.473Z,46.50
2022-12-13T00:51:52.451Z,52.00
2022-12-13T00:52:52.451Z,49.50
2022-12-13T00:53:52.434Z,52.70
2022-12-13T00:54:52.411Z,52.50
2022-12-13T00:55:52.411Z,49.20
2022-12-13T00:56:52.391Z,59.20
2022-12-13T00:57:52.362Z,52.60
2022-12-13T00:58:52.569Z,60.40
2022-12-13T00:59:52.345Z,52.50
2022-12-13T01:00:52.593Z,54.60
2022-12-13T01:01:52.349Z,47.80
2022-12-13T01:02:52.302Z,53.00
2022-12-13T01:03:52.311Z,54.90
2022-12-13T01:04:52.285Z,49.20
2022-12-13T01:06:53.271Z,53.80
2022-12-13T01:07:52.282Z,49.50
2022-12-13T01:08:52.240Z,44.90
2022-12-13T01:09:52.213Z,62.60
2022-12-13T01:10:52.221Z,50.90
2022-12-13T01:11:52.193Z,49.70
2022-12-13T01:12:52.189Z,46.30
2022-12-13T01:13:52.165Z,51.40
2022-12-13T01:14:56.064Z,53.00
2022-12-13T01:15:52.154Z,46.80
2022-12-13T01:16:52.159Z,53.70
2022-12-13T01:17:52.115Z,44.40
2022-12-13T01:18:52.103Z,49.90
2022-12-13T01:19:52.093Z,53.00
2022-12-13T01:20:52.094Z,50.40
2022-12-13T01:21:52.074Z,50.20
2022-12-13T01:22:52.043Z,47.30
2022-12-13T01:23:52.048Z,51.00
2022-12-13T01:24:52.026Z,54.10
2022-12-13T01:25:52.026Z,48.50
2022-12-13T01:26:51.994Z,40.60
2022-12-13T01:27:52.986Z,52.30
2022-12-13T01:28:51.978Z,42.50
2022-12-13T01:29:51.965Z,42.50
2022-12-13T01:30:51.988Z,43.90
2022-12-13T01:31:51.935Z,47.40
2022-12-13T01:32:51.919Z,43.60
2022-12-13T01:33:51.925Z,40.00
2022-12-13T01:34:51.896Z,44.90
2022-12-13T01:35:51.913Z,41.10
2022-12-13T01:36:51.885Z,38.70
2022-12-13T01:37:52.868Z,38.70
2022-12-13T01:38:52.856Z,45.10
2022-12-13T01:39:52.851Z,40.70
2022-12-13T01:40:52.844Z,43.00
2022-12-13T01:41:52.822Z,40.00
2022-12-13T01:42:51.795Z,40.80
2022-12-13T01:43:51.804Z,40.60
2022-12-13T01:44:51.767Z,38.60
2022-12-13T01:45:51.813Z,47.90
2022-12-13T01:46:51.745Z,38.40
2022-12-13T01:47:51.735Z,38.50
2022-12-13T01:48:51.714Z,42.70
2022-12-13T01:49:51.715Z,38.00
2022-12-13T01:50:51.706Z,38.70
2022-12-13T01:51:51.691Z,37.20
2022-12-13T01:52:51.666Z,37.80
2022-12-13T01:53:51.669Z,35.40
2022-12-13T01:54:51.657Z,36.80
2022-12-13T01:55:51.656Z,37.30
2022-12-13T01:56:51.626Z,39.40
2022-12-13T01:57:51.608Z,38.30
2022-12-13T01:58:51.601Z,34.60
2022-12-13T01:59:51.586Z,37.50
2022-12-13T02:00:51.588Z,34.30
2022-12-13T02:01:52.508Z,39.50
2022-12-13T02:02:52.541Z,39.90
2022-12-13T02:03:51.527Z,39.80
2022-12-13T02:04:51.564Z,38.30
2022-12-13T02:05:51.518Z,37.80
2022-12-13T02:06:51.508Z,37.30
2022-12-13T02:07:51.573Z,35.00
2022-12-13T02:08:51.487Z,37.20
2022-12-13T02:09:56.753Z,44.60
2022-12-13T02:10:52.457Z,40.00
2022-12-13T02:11:51.428Z,41.80
2022-12-13T02:12:51.449Z,41.00
2022-12-13T02:13:51.413Z,39.60
2022-12-13T02:14:51.407Z,36.50
2022-12-13T02:15:51.420Z,41.60
2022-12-13T02:16:51.376Z,42.70
2022-12-13T02:17:51.363Z,48.70
2022-12-13T02:18:51.348Z,47.70
2022-12-13T02:19:51.326Z,43.40
2022-12-13T02:20:51.340Z,46.30
2022-12-13T02:21:51.308Z,47.90
2022-12-13T02:22:51.309Z,48.50
2022-12-13T02:23:51.299Z,44.40
2022-12-13T02:24:51.290Z,53.40
2022-12-13T02:25:51.281Z,60.80
2022-12-13T02:26:51.298Z,59.90
2022-12-13T02:27:51.257Z,57.00
2022-12-13T02:28:51.232Z,47.90
2022-12-13T02:29:51.213Z,53.20
2022-12-13T02:30:51.251Z,53.40
2022-12-13T02:31:51.192Z,49.20
2022-12-13T02:32:51.168Z,50.10
2022-12-13T02:33:51.159Z,49.90
2022-12-13T02:34:51.165Z,49.60
2022-12-13T02:35:53.080Z,53.20
2022-12-13T02:36:51.120Z,47.60
2022-12-13T02:37:51.099Z,49.90
2022-12-13T02:38:51.112Z,43.70
2022-12-13T02:39:51.318Z,48.10
2022-12-13T02:40:51.091Z,50.10
2022-12-13T02:41:51.066Z,52.70
2022-12-13T02:42:51.061Z,50.70
2022-12-13T02:43:51.031Z,49.00
2022-12-13T02:44:51.026Z,50.10
2022-12-13T02:45:51.032Z,47.60
2022-12-13T02:46:50.996Z,42.20
2022-12-13T02:47:51.000Z,56.40
2022-12-13T02:48:50.974Z,46.00
2022-12-13T02:49:50.963Z,47.70
2022-12-13T02:50:50.972Z,43.20
2022-12-13T02:51:50.943Z,46.70
2022-12-13T02:52:50.922Z,39.10
2022-12-13T02:53:50.913Z,50.60
2022-12-13T02:54:50.913Z,49.00
2022-12-13T02:55:50.897Z,59.20
2022-12-13T02:56:50.867Z,50.30
2022-12-13T02:57:50.895Z,47.50
2022-12-13T02:58:50.852Z,51.00
2022-12-13T02:59:52.715Z,46.50
2022-12-13T03:00:50.841Z,56.80
2022-12-13T03:01:50.915Z,53.30
2022-12-13T03:02:50.996Z,45.60
2022-12-13T03:03:50.884Z,48.60
2022-12-13T03:04:50.784Z,53.10
2022-12-13T03:05:50.778Z,52.50
2022-12-13T03:06:50.755Z,45.10
2022-12-13T03:07:50.828Z,46.90
2022-12-13T03:08:50.722Z,44.70
2022-12-13T03:09:50.725Z,41.80
2022-12-13T03:10:50.712Z,43.00
2022-12-13T03:11:50.963Z,44.20
2022-12-13T03:12:50.675Z,44.30
2022-12-13T03:13:50.672Z,37.40
2022-12-13T03:14:50.644Z,37.00
2022-12-13T03:15:50.678Z,38.30
2022-12-13T03:16:50.623Z,38.00
2022-12-13T03:17:50.616Z,36.90
2022-12-13T03:18:50.595Z,37.50
2022-12-13T03:19:50.606Z,36.30
2022-12-13T03:20:50.574Z,38.40
2022-12-13T03:21:50.571Z,35.60
2022-12-13T03:22:50.547Z,36.40
2022-12-13T03:23:50.545Z,34.40
2022-12-13T03:24:50.527Z,36.30
2022-12-13T03:25:50.523Z,35.20
2022-12-13T03:26:50.495Z,34.00
2022-12-13T03:27:50.501Z,32.70
2022-12-13T03:28:50.472Z,34.90
2022-12-13T03:29:50.466Z,34.40
2022-12-13T03:30:50.479Z,33.90
2022-12-13T03:31:50.434Z,35.00
2022-12-13T03:32:50.428Z,34.40
2022-12-13T03:33:50.411Z,36.60
2022-12-13T03:35:00.763Z,35.60
2022-12-13T03:35:51.403Z,34.90
2022-12-13T03:36:50.375Z,34.00
2022-12-13T03:37:50.355Z,35.60
2022-12-13T03:38:50.393Z,35.70
2022-12-13T03:39:50.339Z,38.50
2022-12-13T03:40:50.335Z,38.60
2022-12-13T03:41:50.317Z,36.60
2022-12-13T03:42:50.297Z,38.80
2022-12-13T03:43:50.285Z,37.50
2022-12-13T03:44:50.276Z,38.90
2022-12-13T03:45:50.276Z,38.80
2022-12-13T03:46:50.278Z,40.50
2022-12-13T03:47:50.245Z,39.70
2022-12-13T03:48:50.225Z,45.90
2022-12-13T03:49:54.045Z,36.90
2022-12-13T03:50:50.214Z,41.80
2022-12-13T03:51:50.188Z,42.40
2022-12-13T03:52:50.180Z,38.20
2022-12-13T03:53:50.162Z,41.20
2022-12-13T03:54:50.151Z,36.40
2022-12-13T03:55:50.160Z,37.90
2022-12-13T03:56:50.127Z,38.00
2022-12-13T03:57:50.109Z,43.30
2022-12-13T03:58:50.096Z,39.60
2022-12-13T03:59:50.091Z,38.80
2022-12-13T04:00:50.087Z,38.60
2022-12-13T04:01:50.113Z,35.50
2022-12-13T04:02:50.119Z,42.20
2022-12-13T04:03:50.045Z,39.00
2022-12-13T04:04:50.036Z,46.60
2022-12-13T04:05:50.019Z,43.90
2022-12-13T04:06:50.008Z,38.60
2022-12-13T04:07:50.060Z,37.20
2022-12-13T04:08:50.933Z,41.10
2022-12-13T04:09:49.968Z,43.60
2022-12-13T04:10:49.957Z,48.80
2022-12-13T04:11:49.941Z,48.60
2022-12-13T04:12:49.925Z,48.20
2022-12-13T04:13:50.175Z,52.00
2022-12-13T04:14:49.897Z,38.70
2022-12-13T04:15:49.911Z,43.50
2022-12-13T04:16:49.881Z,42.60
2022-12-13T04:17:51.171Z,36.50
2022-12-13T04:18:49.857Z,40.20
2022-12-13T04:19:49.860Z,41.40
2022-12-13T04:20:49.838Z,41.40
2022-12-13T04:21:49.820Z,51.70
2022-12-13T04:22:49.789Z,50.60
2022-12-13T04:23:49.791Z,45.30
2022-12-13T04:24:49.778Z,47.40
2022-12-13T04:25:49.779Z,39.70
2022-12-13T04:26:49.748Z,44.90
2022-12-13T04:27:49.756Z,41.90
2022-12-13T04:28:54.504Z,49.30
2022-12-13T04:29:50.724Z,51.40
2022-12-13T04:30:53.160Z,41.00
2022-12-13T04:31:49.739Z,38.00
2022-12-13T04:32:49.668Z,43.40
2022-12-13T04:33:49.666Z,39.60
2022-12-13T04:34:49.647Z,49.20
2022-12-13T04:35:49.667Z,42.00
2022-12-13T04:36:49.638Z,40.00
2022-12-13T04:37:49.849Z,37.60
2022-12-13T04:38:50.554Z,47.60
2022-12-13T04:39:49.598Z,44.20
2022-12-13T04:40:49.592Z,45.10
2022-12-13T04:41:49.567Z,50.00
2022-12-13T04:42:49.549Z,44.70
2022-12-13T04:43:49.539Z,46.30
2022-12-13T04:44:49.531Z,40.70
2022-12-13T04:45:49.577Z,47.60
2022-12-13T04:46:49.500Z,51.30
2022-12-13T04:47:49.496Z,38.80
2022-12-13T04:48:49.500Z,47.40
2022-12-13T04:49:49.471Z,43.70
2022-12-13T04:50:49.467Z,47.50
2022-12-13T04:51:49.445Z,48.70
2022-12-13T04:52:49.442Z,44.50
2022-12-13T04:53:49.421Z,39.90
2022-12-13T04:54:55.428Z,43.10
2022-12-13T04:55:50.400Z,45.50
2022-12-13T04:56:49.382Z,46.00
2022-12-13T04:57:49.371Z,48.20
2022-12-13T04:58:49.357Z,53.60
2022-12-13T04:59:49.345Z,42.40
2022-12-13T05:00:49.382Z,36.70
2022-12-13T05:01:49.561Z,44.20
2022-12-13T05:02:49.382Z,36.60
2022-12-13T05:03:49.301Z,42.20
2022-12-13T05:04:49.282Z,38.80
2022-12-13T05:05:49.280Z,47.50
2022-12-13T05:06:49.251Z,46.10
2022-12-13T05:07:49.321Z,38.30
2022-12-13T05:08:49.239Z,48.30
2022-12-13T05:09:49.230Z,41.20
2022-12-13T05:10:49.211Z,37.90
2022-12-13T05:11:49.201Z,37.60
2022-12-13T05:12:49.187Z,45.80
2022-12-13T05:13:49.186Z,39.40
2022-12-13T05:14:49.160Z,38.70
2022-12-13T05:15:54.956Z,38.00
2022-12-13T05:16:50.193Z,38.30
2022-12-13T05:17:49.130Z,38.30
2022-12-13T05:18:49.101Z,36.10
2022-12-13T05:19:49.101Z,40.80
2022-12-13T05:20:49.093Z,38.50
2022-12-13T05:21:49.083Z,38.70
2022-12-13T05:22:49.064Z,42.20
2022-12-13T05:23:49.068Z,34.90
2022-12-13T05:24:49.032Z,39.10
2022-12-13T05:25:49.042Z,40.90
2022-12-13T05:26:49.012Z,36.50
2022-12-13T05:27:49.002Z,37.00
2022-12-13T05:28:50.002Z,36.20
2022-12-13T05:29:49.247Z,35.60
2022-12-13T05:30:48.967Z,38.50
2022-12-13T05:31:49.044Z,36.60
2022-12-13T05:32:48.932Z,36.90
2022-12-13T05:33:48.942Z,33.80
2022-12-13T05:34:48.913Z,36.70
2022-12-13T05:35:48.930Z,33.90
2022-12-13T05:36:48.901Z,39.60
2022-12-13T05:37:53.761Z,37.10
2022-12-13T05:38:49.869Z,39.30
2022-12-13T05:39:48.864Z,36.30
2022-12-13T05:40:48.849Z,42.50
2022-12-13T05:41:48.833Z,38.10
2022-12-13T05:42:48.824Z,38.50
2022-12-13T05:43:48.814Z,38.40
2022-12-13T05:44:48.792Z,36.10
2022-12-13T05:45:48.874Z,37.10
2022-12-13T05:46:48.773Z,35.80
2022-12-13T05:47:48.760Z,36.10
2022-12-13T05:48:48.741Z,35.50
2022-12-13T05:49:48.737Z,35.60
2022-12-13T05:50:48.733Z,34.40
2022-12-13T05:51:48.726Z,36.20
2022-12-13T05:52:48.692Z,41.20
2022-12-13T05:53:53.262Z,36.70
2022-12-13T05:54:48.673Z,35.20
2022-12-13T05:55:48.682Z,34.90
2022-12-13T05:56:48.647Z,37.10
2022-12-13T05:57:51.018Z,34.90
2022-12-13T05:58:48.615Z,37.10
2022-12-13T05:59:49.614Z,36.90
2022-12-13T06:00:48.608Z,35.30
2022-12-13T06:01:48.831Z,36.50
2022-12-13T06:02:48.829Z,42.10
2022-12-13T06:03:48.652Z,35.10
2022-12-13T06:04:48.552Z,34.40
2022-12-13T06:05:48.564Z,36.00
2022-12-13T06:06:48.518Z,32.80
2022-12-13T06:07:52.235Z,35.60
2022-12-13T06:08:49.556Z,35.30
2022-12-13T06:09:48.523Z,33.80
2022-12-13T06:10:48.479Z,39.60
2022-12-13T06:11:48.473Z,49.40
2022-12-13T06:12:48.466Z,38.10
2022-12-13T06:13:48.695Z,38.70
2022-12-13T06:14:48.427Z,57.30
2022-12-13T06:15:48.425Z,47.20
2022-12-13T06:16:48.445Z,42.00
2022-12-13T06:17:48.386Z,39.00
2022-12-13T06:18:48.384Z,40.90
2022-12-13T06:19:48.355Z,52.60
2022-12-13T06:20:48.367Z,41.90
2022-12-13T06:21:48.335Z,44.60
2022-12-13T06:22:48.333Z,47.20
2022-12-13T06:23:48.317Z,47.40
2022-12-13T06:24:48.307Z,57.60
2022-12-13T06:25:51.654Z,49.80
2022-12-13T06:26:48.314Z,59.60
2022-12-13T06:27:48.267Z,54.60
2022-12-13T06:28:48.265Z,61.20
2022-12-13T06:29:48.245Z,54.40
2022-12-13T06:30:48.272Z,53.60
2022-12-13T06:31:48.218Z,56.10
2022-12-13T06:32:48.211Z,54.80
2022-12-13T06:33:48.196Z,53.20
2022-12-13T06:34:48.184Z,57.60
2022-12-13T06:35:48.193Z,59.90
2022-12-13T06:36:48.162Z,53.00
2022-12-13T06:37:48.167Z,63.10
2022-12-13T06:38:48.150Z,57.60
2022-12-13T06:39:48.125Z,62.60
2022-12-13T06:40:48.127Z,57.40
2022-12-13T06:41:48.095Z,56.20
2022-12-13T06:42:48.093Z,57.70
2022-12-13T06:43:48.067Z,50.90
2022-12-13T06:44:48.058Z,53.50
2022-12-13T06:45:49.098Z,51.50
2022-12-13T06:46:48.046Z,45.10
2022-12-13T06:47:48.017Z,52.50
2022-12-13T06:48:48.027Z,53.10
2022-12-13T06:49:47.997Z,50.50
2022-12-13T06:50:48.004Z,45.50
2022-12-13T06:51:47.977Z,41.60
2022-12-13T06:52:47.994Z,42.90
2022-12-13T06:53:47.957Z,51.20
2022-12-13T06:54:47.957Z,53.30
2022-12-13T06:55:47.947Z,49.60
2022-12-13T06:56:47.926Z,57.80
2022-12-13T06:57:47.907Z,59.40
2022-12-13T06:58:47.887Z,59.70
2022-12-13T06:59:47.878Z,55.90
2022-12-13T07:00:48.884Z,51.90
2022-12-13T07:01:50.638Z,51.40
2022-12-13T07:02:47.975Z,44.80
2022-12-13T07:03:47.829Z,44.00
2022-12-13T07:04:47.818Z,37.60
2022-12-13T07:05:47.808Z,37.60
2022-12-13T07:06:47.798Z,35.10
2022-12-13T07:07:47.866Z,34.90
2022-12-13T07:08:47.768Z,32.50
2022-12-13T07:09:47.759Z,32.90
2022-12-13T07:10:47.758Z,35.20
2022-12-13T07:11:51.985Z,33.00
2022-12-13T07:12:47.720Z,30.50
2022-12-13T07:13:47.704Z,34.30
2022-12-13T07:14:47.719Z,33.00
2022-12-13T07:15:47.738Z,32.40
2022-12-13T07:16:47.667Z,33.30
2022-12-13T07:17:47.659Z,34.60
2022-12-13T07:18:47.680Z,32.40
2022-12-13T07:19:48.034Z,34.30
2022-12-13T07:20:47.629Z,29.90
2022-12-13T07:21:47.605Z,31.10
2022-12-13T07:22:50.214Z,31.10
2022-12-13T07:23:48.536Z,32.10
2022-12-13T07:24:48.570Z,29.80
2022-12-13T07:25:47.559Z,31.20
2022-12-13T07:26:47.561Z,30.40
2022-12-13T07:27:47.539Z,31.60
2022-12-13T07:28:52.937Z,29.80
2022-12-13T07:29:48.510Z,31.40
2022-12-13T07:30:47.562Z,30.20
2022-12-13T07:31:47.480Z,32.40
2022-12-13T07:32:47.479Z,31.90
2022-12-13T07:33:47.460Z,31.80
2022-12-13T07:34:47.449Z,32.40
2022-12-13T07:35:47.446Z,31.80
2022-12-13T07:36:48.438Z,30.90
2022-12-13T07:37:47.420Z,31.60
2022-12-13T07:38:47.406Z,31.60
2022-12-13T07:39:47.399Z,33.60
2022-12-13T07:40:47.421Z,29.80
2022-12-13T07:41:47.381Z,30.00
2022-12-13T07:42:47.350Z,29.50
2022-12-13T07:43:47.338Z,29.10
2022-12-13T07:44:48.328Z,29.50
2022-12-13T07:45:47.331Z,28.70
2022-12-13T07:46:47.356Z,30.20
2022-12-13T07:47:47.299Z,29.60
2022-12-13T07:48:47.279Z,30.20
2022-12-13T07:49:47.261Z,31.30
2022-12-13T07:50:54.782Z,31.10
2022-12-13T07:51:48.242Z,29.30
2022-12-13T07:52:47.232Z,31.00
2022-12-13T07:53:47.213Z,30.70
2022-12-13T07:54:47.207Z,30.00
2022-12-13T07:55:47.201Z,31.30
2022-12-13T07:56:47.189Z,30.80
2022-12-13T07:57:47.168Z,33.60
2022-12-13T07:58:47.163Z,32.70
2022-12-13T07:59:47.151Z,32.70
2022-12-13T08:00:47.144Z,31.70
2022-12-13T08:01:47.190Z,30.30
2022-12-13T08:02:47.122Z,30.20
2022-12-13T08:03:47.092Z,30.80
2022-12-13T08:04:54.443Z,33.30
2022-12-13T08:05:48.141Z,31.10
2022-12-13T08:06:47.061Z,28.10
2022-12-13T08:07:47.042Z,29.60
2022-12-13T08:08:47.031Z,29.60
2022-12-13T08:09:52.559Z,29.30
2022-12-13T08:10:48.019Z,29.00
2022-12-13T08:11:47.004Z,29.50
2022-12-13T08:12:47.003Z,30.90
2022-12-13T08:13:46.974Z,28.40
2022-12-13T08:14:46.963Z,27.20
2022-12-13T08:15:48.013Z,28.80
2022-12-13T08:16:46.958Z,29.00
2022-12-13T08:17:46.919Z,27.20
2022-12-13T08:18:46.915Z,27.80
2022-12-13T08:19:46.913Z,29.40
2022-12-13T08:20:46.895Z,26.50
2022-12-13T08:21:56.151Z,31.00
2022-12-13T08:22:49.423Z,30.30
2022-12-13T08:23:46.881Z,29.90
2022-12-13T08:24:47.215Z,28.70
2022-12-13T08:25:46.878Z,28.90
2022-12-13T08:26:46.822Z,27.70
2022-12-13T08:27:46.794Z,28.10
2022-12-13T08:28:46.785Z,28.60
2022-12-13T08:29:46.791Z,29.30
2022-12-13T08:30:46.794Z,29.30
2022-12-13T08:31:46.806Z,28.10
2022-12-13T08:32:46.743Z,29.70
2022-12-13T08:33:46.740Z,28.00
2022-12-13T08:34:46.734Z,27.90
2022-12-13T08:35:46.706Z,29.70
2022-12-13T08:36:46.693Z,27.80
2022-12-13T08:37:46.671Z,28.80
2022-12-13T08:38:46.675Z,30.00
2022-12-13T08:39:46.647Z,29.50
2022-12-13T08:40:46.651Z,29.70
2022-12-13T08:41:46.624Z,31.40
2022-12-13T08:42:46.624Z,28.50
2022-12-13T08:43:46.593Z,34.60
2022-12-13T08:44:46.594Z,37.10
2022-12-13T08:45:47.535Z,33.90
2022-12-13T08:46:46.598Z,31.30
2022-12-13T08:47:46.552Z,40.50
2022-12-13T08:48:46.630Z,42.60
2022-12-13T08:49:46.522Z,65.40
2022-12-13T08:50:46.543Z,60.20
2022-12-13T08:51:46.496Z,65.90
2022-12-13T08:52:46.499Z,74.60
2022-12-13T08:53:46.488Z,63.10
2022-12-13T08:54:46.477Z,58.70
2022-12-13T08:55:46.465Z,54.00
2022-12-13T08:56:46.440Z,53.40
2022-12-13T08:57:46.435Z,46.40
2022-12-13T08:58:46.416Z,51.10
2022-12-13T08:59:46.394Z,45.50
2022-12-13T09:00:46.450Z,44.20
2022-12-13T09:01:46.441Z,45.50
2022-12-13T09:02:46.427Z,39.70
2022-12-13T09:03:46.345Z,34.00
2022-12-13T09:04:46.346Z,35.80
2022-12-13T09:05:47.139Z,35.60
2022-12-13T09:06:46.324Z,36.60
2022-12-13T09:07:46.299Z,45.10
2022-12-13T09:08:51.704Z,31.90
2022-12-13T09:09:47.311Z,31.10
2022-12-13T09:10:47.276Z,31.70
2022-12-13T09:11:46.256Z,30.30
2022-12-13T09:12:46.246Z,30.90
2022-12-13T09:13:46.228Z,31.90
2022-12-13T09:14:46.386Z,29.80
2022-12-13T09:15:46.490Z,31.90
2022-12-13T09:16:51.027Z,30.50
2022-12-13T09:17:52.642Z,33.30
2022-12-13T09:18:46.179Z,31.90
2022-12-13T09:19:48.144Z,30.00
2022-12-13T09:20:46.295Z,29.60
2022-12-13T09:21:46.127Z,29.10
2022-12-13T09:22:46.117Z,28.40
2022-12-13T09:23:46.494Z,29.30
2022-12-13T09:24:50.050Z,30.50
2022-12-13T09:25:51.462Z,27.80
2022-12-13T09:26:47.078Z,29.00
2022-12-13T09:27:46.057Z,28.80
2022-12-13T09:28:46.037Z,29.90
2022-12-13T09:29:46.037Z,28.10
2022-12-13T09:30:46.030Z,28.70
2022-12-13T09:31:52.617Z,27.40
2022-12-13T09:32:47.007Z,28.60
2022-12-13T09:33:45.978Z,28.80
2022-12-13T09:34:46.217Z,27.10
2022-12-13T09:35:45.968Z,27.80
2022-12-13T09:36:45.948Z,28.80
2022-12-13T09:37:46.300Z,27.30
2022-12-13T09:38:45.919Z,25.70
2022-12-13T09:39:45.907Z,27.10
2022-12-13T09:40:45.900Z,27.00
2022-12-13T09:41:45.870Z,28.00
2022-12-13T09:42:45.872Z,26.20
2022-12-13T09:43:46.120Z,26.70
2022-12-13T09:44:51.565Z,26.30
2022-12-13T09:45:46.909Z,27.90
2022-12-13T09:46:45.921Z,27.60
2022-12-13T09:47:47.300Z,26.60
2022-12-13T09:48:48.153Z,27.40
2022-12-13T09:49:52.051Z,26.30
2022-12-13T09:50:58.001Z,26.70
2022-12-13T09:51:55.339Z,28.40
2022-12-13T09:52:46.744Z,33.00
2022-12-13T09:53:45.719Z,35.40
2022-12-13T09:54:48.705Z,41.00
2022-12-13T09:55:45.701Z,46.60
2022-12-13T09:56:45.693Z,57.80
2022-12-13T09:57:45.670Z,38.70
2022-12-13T09:58:45.678Z,30.70
2022-12-13T09:59:45.653Z,30.30
2022-12-13T10:00:45.691Z,27.00
2022-12-13T10:01:45.678Z,30.00
2022-12-13T10:02:45.631Z,30.80
2022-12-13T10:03:45.600Z,29.80
2022-12-13T10:04:45.591Z,31.30
2022-12-13T10:05:45.581Z,32.70
2022-12-13T10:06:45.572Z,28.20
2022-12-13T10:07:45.541Z,26.00
2022-12-13T10:08:45.541Z,27.50
2022-12-13T10:09:45.518Z,27.30
2022-12-13T10:10:45.565Z,26.90
2022-12-13T10:11:50.205Z,28.00
2022-12-13T10:12:46.502Z,28.20
2022-12-13T10:13:45.472Z,27.80
2022-12-13T10:14:45.459Z,27.90
2022-12-13T10:15:45.487Z,29.00
2022-12-13T10:16:45.533Z,26.70
2022-12-13T10:17:50.142Z,28.80
2022-12-13T10:18:46.412Z,27.80
2022-12-13T10:19:45.391Z,26.30
2022-12-13T10:20:45.394Z,27.40
2022-12-13T10:21:45.372Z,26.40
2022-12-13T10:23:01.658Z,29.10
2022-12-13T10:24:23.175Z,26.30
2022-12-13T10:24:46.334Z,26.70
2022-12-13T10:25:46.346Z,27.90
2022-12-13T10:26:45.353Z,27.50
2022-12-13T10:27:45.302Z,27.20
2022-12-13T10:28:45.283Z,27.50
2022-12-13T10:29:45.340Z,27.10
2022-12-13T10:30:46.339Z,27.60
2022-12-13T10:31:45.280Z,25.90
2022-12-13T10:32:45.231Z,28.40
2022-12-13T10:33:45.229Z,28.70
2022-12-13T10:34:45.202Z,28.30
2022-12-13T10:35:45.203Z,27.00
2022-12-13T10:36:46.133Z,27.90
2022-12-13T10:37:45.170Z,29.00
2022-12-13T10:38:45.153Z,27.50
2022-12-13T10:39:46.097Z,28.70
2022-12-13T10:40:45.137Z,28.60
2022-12-13T10:41:45.123Z,25.10
2022-12-13T10:42:45.104Z,27.30
2022-12-13T10:43:46.043Z,26.40
2022-12-13T10:44:45.075Z,27.10
2022-12-13T10:45:45.123Z,25.80
2022-12-13T10:46:46.031Z,27.30
2022-12-13T10:47:45.046Z,28.10
2022-12-13T10:48:45.034Z,26.80
2022-12-13T10:49:45.019Z,26.30
2022-12-13T10:50:45.042Z,25.80
2022-12-13T10:51:45.002Z,26.90
2022-12-13T10:52:44.975Z,26.80
2022-12-13T10:53:47.317Z,28.10
2022-12-13T10:54:48.549Z,29.90
2022-12-13T10:55:44.955Z,29.90
2022-12-13T10:56:44.925Z,27.00
2022-12-13T10:57:44.934Z,29.20
2022-12-13T10:58:45.865Z,27.50
2022-12-13T10:59:44.905Z,28.00
2022-12-13T11:00:45.879Z,30.50
2022-12-13T11:01:45.821Z,30.00
2022-12-13T11:02:44.903Z,29.10
2022-12-13T11:03:44.837Z,30.20
2022-12-13T11:04:45.780Z,31.20
2022-12-13T11:05:44.824Z,29.60
2022-12-13T11:06:44.796Z,32.50
2022-12-13T11:07:44.787Z,30.20
2022-12-13T11:08:44.777Z,30.00
2022-12-13T11:09:44.762Z,29.90
2022-12-13T11:10:45.760Z,30.10
2022-12-13T11:11:44.737Z,30.70
2022-12-13T11:12:45.676Z,31.30
2022-12-13T11:13:44.715Z,28.80
2022-12-13T11:14:44.697Z,30.20
2022-12-13T11:15:44.697Z,28.30
2022-12-13T11:16:45.629Z,31.00
2022-12-13T11:17:44.664Z,27.30
2022-12-13T11:18:44.649Z,27.90
2022-12-13T11:19:45.679Z,28.00
2022-12-13T11:20:44.696Z,27.50
2022-12-13T11:21:45.577Z,28.10
2022-12-13T11:22:44.607Z,27.50
2022-12-13T11:23:44.596Z,26.60
2022-12-13T11:24:44.578Z,28.30
2022-12-13T11:25:44.568Z,26.70
2022-12-13T11:26:44.550Z,35.60
2022-12-13T11:27:44.547Z,27.30
2022-12-13T11:28:44.830Z,26.70
2022-12-13T11:29:44.513Z,27.70
2022-12-13T11:30:45.489Z,27.50
2022-12-13T11:31:44.545Z,26.80
2022-12-13T11:32:44.477Z,25.50
2022-12-13T11:33:48.467Z,26.90
2022-12-13T11:34:44.458Z,29.60
2022-12-13T11:35:44.449Z,32.10
2022-12-13T11:36:44.427Z,31.00
2022-12-13T11:37:44.429Z,35.90
2022-12-13T11:38:44.400Z,34.20
2022-12-13T11:39:44.390Z,32.30
2022-12-13T11:40:44.391Z,29.70
2022-12-13T11:41:44.368Z,27.10
2022-12-13T11:42:44.349Z,26.20
2022-12-13T11:43:44.339Z,26.30
2022-12-13T11:44:47.997Z,27.90
2022-12-13T11:45:44.372Z,28.70
2022-12-13T11:46:44.306Z,26.60
2022-12-13T11:47:44.289Z,28.30
2022-12-13T11:48:44.271Z,27.40
2022-12-13T11:49:44.269Z,27.90
2022-12-13T11:50:44.269Z,27.40
2022-12-13T11:51:44.239Z,28.80
2022-12-13T11:52:44.220Z,28.40
2022-12-13T11:53:44.221Z,29.60
2022-12-13T11:54:44.201Z,28.50
2022-12-13T11:55:44.211Z,29.10
2022-12-13T11:56:44.170Z,29.30
2022-12-13T11:57:44.173Z,27.10
2022-12-13T11:59:45.139Z,27.40
2022-12-13T12:00:44.132Z,29.10
2022-12-13T12:01:45.093Z,27.40
2022-12-13T12:02:44.156Z,26.50
2022-12-13T12:03:44.120Z,27.00
2022-12-13T12:04:44.216Z,30.10
2022-12-13T12:05:44.079Z,26.80
2022-12-13T12:06:44.051Z,27.90
2022-12-13T12:08:05.397Z,27.40
2022-12-13T12:08:45.267Z,27.40
2022-12-13T12:09:44.012Z,27.50
2022-12-13T12:10:49.308Z,28.20
2022-12-13T12:11:44.995Z,30.20
2022-12-13T12:12:43.973Z,28.70
2022-12-13T12:13:51.170Z,26.70
2022-12-13T12:14:44.961Z,28.80
2022-12-13T12:15:43.994Z,27.90
2022-12-13T12:16:43.923Z,27.70
2022-12-13T12:17:43.931Z,27.80
2022-12-13T12:18:43.904Z,28.70
2022-12-13T12:19:43.997Z,30.10
2022-12-13T12:20:43.969Z,27.30
2022-12-13T12:22:12.749Z,29.30
2022-12-13T12:22:44.855Z,28.70
2022-12-13T12:23:48.360Z,27.60
2022-12-13T12:24:44.823Z,29.50
2022-12-13T12:25:43.844Z,29.50
2022-12-13T12:26:43.804Z,29.70
2022-12-13T12:27:43.825Z,29.30
2022-12-13T12:28:44.415Z,28.70
2022-12-13T12:29:43.872Z,30.00
2022-12-13T12:30:44.901Z,28.80
2022-12-13T12:31:51.038Z,28.60
2022-12-13T12:32:44.725Z,29.00
2022-12-13T12:33:43.724Z,30.20
2022-12-13T12:34:43.808Z,29.40
2022-12-13T12:35:46.368Z,28.40
2022-12-13T12:36:43.683Z,28.20
2022-12-13T12:37:43.679Z,27.50
2022-12-13T12:38:43.652Z,29.30
2022-12-13T12:39:43.702Z,29.20
2022-12-13T12:41:15.218Z,31.00
2022-12-13T12:41:45.644Z,29.20
2022-12-13T12:43:13.462Z,29.60
2022-12-13T12:43:44.586Z,29.50
2022-12-13T12:44:43.581Z,29.20
2022-12-13T12:45:58.907Z,31.50
2022-12-13T12:47:08.697Z,31.30
2022-12-13T12:49:02.269Z,29.90
2022-12-13T12:49:44.547Z,29.30
2022-12-13T12:50:43.507Z,30.00
2022-12-13T12:51:43.496Z,29.60
2022-12-13T12:52:43.477Z,30.50
2022-12-13T12:53:43.470Z,29.10
2022-12-13T12:54:43.498Z,30.80
2022-12-13T12:55:43.446Z,31.00